sensor_id;sensor_type;location;lat;lon;timestamp;P1;durP1;ratioP1;P2;durP2;ratioP2
76848;SDS011;65814;51.134;16.980;2023-02-11T00:01:50;30.20;;;17.00;;
76848;SDS011;65814;51.134;16.980;2023-02-11T00:04:18;27.90;;;16.90;;
76848;SDS011;65814;51.134;16.980;2023-02-11T00:06:46;30.90;;;16.30;;
76848;SDS011;65814;51.134;16.980;2023-02-11T00:09:14;29.30;;;16.40;;
76848;SDS011;65814;51.134;16.980;2023-02-11T00:11:42;32.70;;;16.80;;
76848;SDS011;65814;51.134;16.980;2023-02-11T00:14:10;31.60;;;17.50;;
76848;SDS011;65814;51.134;16.980;2023-02-11T00:16:38;31.00;;;16.50;;
76848;SDS011;65814;51.134;16.980;2023-02-11T00:19:06;30.30;;;17.60;;
76848;SDS011;65814;51.134;16.980;2023-02-11T00:21:34;32.60;;;16.50;;
76848;SDS011;65814;51.134;16.980;2023-02-11T00:24:02;30.40;;;17.90;;
76848;SDS011;65814;51.134;16.980;2023-02-11T00:26:33;28.30;;;17.40;;
76848;SDS011;65814;51.134;16.980;2023-02-11T00:29:02;32.70;;;17.90;;
76848;SDS011;65814;51.134;16.980;2023-02-11T00:31:31;25.80;;;16.30;;
76848;SDS011;65814;51.134;16.980;2023-02-11T00:34:00;33.40;;;19.80;;
76848;SDS011;65814;51.134;16.980;2023-02-11T00:36:28;34.40;;;19.80;;
76848;SDS011;65814;51.134;16.980;2023-02-11T00:38:57;33.40;;;19.80;;
76848;SDS011;65814;51.134;16.980;2023-02-11T00:41:25;31.00;;;18.30;;
76848;SDS011;65814;51.134;16.980;2023-02-11T00:43:53;30.20;;;19.00;;
76848;SDS011;65814;51.134;16.980;2023-02-11T00:46:21;31.80;;;18.60;;
76848;SDS011;65814;51.134;16.980;2023-02-11T00:48:49;34.70;;;18.90;;
76848;SDS011;65814;51.134;16.980;2023-02-11T00:51:19;34.30;;;18.80;;
76848;SDS011;65814;51.134;16.980;2023-02-11T00:53:47;34.40;;;20.30;;
76848;SDS011;65814;51.134;16.980;2023-02-11T00:56:15;33.70;;;19.00;;
76848;SDS011;65814;51.134;16.980;2023-02-11T00:58:43;29.30;;;17.70;;
76848;SDS011;65814;51.134;16.980;2023-02-11T01:01:11;31.70;;;19.40;;
76848;SDS011;65814;51.134;16.980;2023-02-11T01:03:39;31.50;;;18.80;;
76848;SDS011;65814;51.134;16.980;2023-02-11T01:06:08;38.30;;;19.70;;
76848;SDS011;65814;51.134;16.980;2023-02-11T01:08:36;34.20;;;20.30;;
76848;SDS011;65814;51.134;16.980;2023-02-11T01:11:06;33.50;;;19.00;;
76848;SDS011;65814;51.134;16.980;2023-02-11T01:13:38;28.40;;;18.10;;
76848;SDS011;65814;51.134;16.980;2023-02-11T01:16:07;31.30;;;16.90;;
76848;SDS011;65814;51.134;16.980;2023-02-11T01:18:36;29.10;;;16.10;;
76848;SDS011;65814;51.134;16.980;2023-02-11T01:21:04;31.90;;;19.50;;
76848;SDS011;65814;51.134;16.980;2023-02-11T01:23:32;38.30;;;22.50;;
76848;SDS011;65814;51.134;16.980;2023-02-11T01:26:00;33.50;;;18.60;;
76848;SDS011;65814;51.134;16.980;2023-02-11T01:28:29;32.50;;;17.40;;
76848;SDS011;65814;51.134;16.980;2023-02-11T01:30:58;28.70;;;16.80;;
76848;SDS011;65814;51.134;16.980;2023-02-11T01:33:30;28.00;;;16.20;;
76848;SDS011;65814;51.134;16.980;2023-02-11T01:36:02;30.50;;;18.50;;
76848;SDS011;65814;51.134;16.980;2023-02-11T01:38:31;34.20;;;18.40;;
76848;SDS011;65814;51.134;16.980;2023-02-11T01:41:01;33.00;;;17.80;;
76848;SDS011;65814;51.134;16.980;2023-02-11T01:43:31;31.40;;;18.20;;
76848;SDS011;65814;51.134;16.980;2023-02-11T01:48:58;32.80;;;17.20;;
76848;SDS011;65814;51.134;16.980;2023-02-11T01:51:32;32.10;;;17.20;;
76848;SDS011;65814;51.134;16.980;2023-02-11T01:54:03;31.20;;;17.40;;
76848;SDS011;65814;51.134;16.980;2023-02-11T01:56:51;32.30;;;16.30;;
76848;SDS011;65814;51.134;16.980;2023-02-11T01:59:40;30.30;;;17.20;;
76848;SDS011;65814;51.134;16.980;2023-02-11T02:02:11;26.80;;;16.20;;
76848;SDS011;65814;51.134;16.980;2023-02-11T02:04:43;29.30;;;16.80;;
76848;SDS011;65814;51.134;16.980;2023-02-11T02:07:16;29.10;;;16.70;;
76848;SDS011;65814;51.134;16.980;2023-02-11T02:09:52;37.50;;;19.20;;
76848;SDS011;65814;51.134;16.980;2023-02-11T02:12:25;32.00;;;19.50;;
76848;SDS011;65814;51.134;16.980;2023-02-11T02:15:09;34.20;;;20.10;;
76848;SDS011;65814;51.134;16.980;2023-02-11T02:17:53;32.70;;;18.30;;
76848;SDS011;65814;51.134;16.980;2023-02-11T02:21:04;27.70;;;16.10;;
76848;SDS011;65814;51.134;16.980;2023-02-11T02:37:54;27.60;;;15.80;;
76848;SDS011;65814;51.134;16.980;2023-02-11T02:40:53;26.70;;;15.60;;
76848;SDS011;65814;51.134;16.980;2023-02-11T02:43:41;25.70;;;15.40;;
76848;SDS011;65814;51.134;16.980;2023-02-11T02:46:18;32.70;;;17.10;;
76848;SDS011;65814;51.134;16.980;2023-02-11T02:48:54;29.80;;;15.30;;
76848;SDS011;65814;51.134;16.980;2023-02-11T02:57:13;30.30;;;17.40;;
76848;SDS011;65814;51.134;16.980;2023-02-11T03:05:30;29.90;;;18.50;;
76848;SDS011;65814;51.134;16.980;2023-02-11T03:11:04;31.50;;;18.60;;
76848;SDS011;65814;51.134;16.980;2023-02-11T03:13:33;25.50;;;15.70;;
76848;SDS011;65814;51.134;16.980;2023-02-11T03:16:22;28.40;;;17.20;;
76848;SDS011;65814;51.134;16.980;2023-02-11T03:18:58;30.10;;;16.50;;
76848;SDS011;65814;51.134;16.980;2023-02-11T03:21:39;27.60;;;15.70;;
76848;SDS011;65814;51.134;16.980;2023-02-11T03:24:23;30.90;;;15.70;;
76848;SDS011;65814;51.134;16.980;2023-02-11T03:26:57;26.10;;;14.60;;
76848;SDS011;65814;51.134;16.980;2023-02-11T03:39:58;25.50;;;15.20;;
76848;SDS011;65814;51.134;16.980;2023-02-11T03:42:42;27.10;;;15.40;;
76848;SDS011;65814;51.134;16.980;2023-02-11T03:45:14;27.80;;;16.00;;
76848;SDS011;65814;51.134;16.980;2023-02-11T03:47:45;27.50;;;16.00;;
76848;SDS011;65814;51.134;16.980;2023-02-11T03:50:15;28.40;;;16.50;;
76848;SDS011;65814;51.134;16.980;2023-02-11T03:52:44;26.60;;;16.10;;
76848;SDS011;65814;51.134;16.980;2023-02-11T03:55:17;28.20;;;15.30;;
76848;SDS011;65814;51.134;16.980;2023-02-11T03:57:46;25.40;;;16.30;;
76848;SDS011;65814;51.134;16.980;2023-02-11T04:00:14;33.40;;;18.00;;
76848;SDS011;65814;51.134;16.980;2023-02-11T04:02:42;26.60;;;17.80;;
76848;SDS011;65814;51.134;16.980;2023-02-11T04:05:13;29.20;;;17.10;;
76848;SDS011;65814;51.134;16.980;2023-02-11T04:07:41;32.90;;;18.00;;
76848;SDS011;65814;51.134;16.980;2023-02-11T04:10:10;28.20;;;17.30;;
76848;SDS011;65814;51.134;16.980;2023-02-11T04:12:38;27.80;;;17.20;;
76848;SDS011;65814;51.134;16.980;2023-02-11T04:15:07;27.20;;;16.20;;
76848;SDS011;65814;51.134;16.980;2023-02-11T04:17:35;30.40;;;16.20;;
76848;SDS011;65814;51.134;16.980;2023-02-11T04:20:03;31.50;;;17.20;;
76848;SDS011;65814;51.134;16.980;2023-02-11T04:22:31;25.30;;;15.50;;
76848;SDS011;65814;51.134;16.980;2023-02-11T04:24:59;25.80;;;15.60;;
76848;SDS011;65814;51.134;16.980;2023-02-11T04:27:27;31.30;;;15.60;;
76848;SDS011;65814;51.134;16.980;2023-02-11T04:29:55;27.80;;;15.70;;
76848;SDS011;65814;51.134;16.980;2023-02-11T04:32:23;24.80;;;14.90;;
76848;SDS011;65814;51.134;16.980;2023-02-11T04:34:51;26.40;;;16.00;;
76848;SDS011;65814;51.134;16.980;2023-02-11T04:37:19;28.10;;;15.80;;
76848;SDS011;65814;51.134;16.980;2023-02-11T04:39:46;27.30;;;15.50;;
76848;SDS011;65814;51.134;16.980;2023-02-11T04:42:14;27.80;;;15.40;;
76848;SDS011;65814;51.134;16.980;2023-02-11T04:44:42;24.30;;;15.40;;
76848;SDS011;65814;51.134;16.980;2023-02-11T04:47:10;29.20;;;15.40;;
76848;SDS011;65814;51.134;16.980;2023-02-11T04:49:40;28.00;;;16.50;;
76848;SDS011;65814;51.134;16.980;2023-02-11T04:52:08;26.30;;;15.70;;
76848;SDS011;65814;51.134;16.980;2023-02-11T04:54:36;26.90;;;14.90;;
76848;SDS011;65814;51.134;16.980;2023-02-11T04:57:04;26.10;;;15.70;;
76848;SDS011;65814;51.134;16.980;2023-02-11T04:59:31;26.50;;;14.90;;
76848;SDS011;65814;51.134;16.980;2023-02-11T05:01:59;25.10;;;16.50;;
76848;SDS011;65814;51.134;16.980;2023-02-11T05:04:27;21.70;;;15.00;;
76848;SDS011;65814;51.134;16.980;2023-02-11T05:06:55;27.80;;;15.90;;
76848;SDS011;65814;51.134;16.980;2023-02-11T05:09:25;25.10;;;15.50;;
76848;SDS011;65814;51.134;16.980;2023-02-11T05:11:56;24.70;;;14.50;;
76848;SDS011;65814;51.134;16.980;2023-02-11T05:14:23;25.60;;;14.60;;
76848;SDS011;65814;51.134;16.980;2023-02-11T05:16:51;23.40;;;14.80;;
76848;SDS011;65814;51.134;16.980;2023-02-11T05:19:19;27.50;;;14.00;;
76848;SDS011;65814;51.134;16.980;2023-02-11T05:21:47;22.70;;;14.10;;
76848;SDS011;65814;51.134;16.980;2023-02-11T05:24:29;23.30;;;14.70;;
76848;SDS011;65814;51.134;16.980;2023-02-11T05:26:58;23.80;;;14.20;;
76848;SDS011;65814;51.134;16.980;2023-02-11T05:29:27;28.00;;;14.70;;
76848;SDS011;65814;51.134;16.980;2023-02-11T05:31:55;26.70;;;14.80;;
76848;SDS011;65814;51.134;16.980;2023-02-11T05:34:23;24.60;;;14.90;;
76848;SDS011;65814;51.134;16.980;2023-02-11T05:36:51;23.80;;;14.70;;
76848;SDS011;65814;51.134;16.980;2023-02-11T05:39:18;25.00;;;13.50;;
76848;SDS011;65814;51.134;16.980;2023-02-11T05:41:46;28.70;;;14.90;;
76848;SDS011;65814;51.134;16.980;2023-02-11T05:44:14;23.80;;;14.60;;
76848;SDS011;65814;51.134;16.980;2023-02-11T05:46:42;21.50;;;14.70;;
76848;SDS011;65814;51.134;16.980;2023-02-11T05:49:10;20.90;;;13.70;;
76848;SDS011;65814;51.134;16.980;2023-02-11T05:51:38;25.60;;;15.70;;
76848;SDS011;65814;51.134;16.980;2023-02-11T05:54:06;31.20;;;16.30;;
76848;SDS011;65814;51.134;16.980;2023-02-11T05:56:33;24.90;;;16.50;;
76848;SDS011;65814;51.134;16.980;2023-02-11T05:59:01;24.00;;;15.90;;
76848;SDS011;65814;51.134;16.980;2023-02-11T06:01:29;24.50;;;14.70;;
76848;SDS011;65814;51.134;16.980;2023-02-11T06:03:57;27.10;;;14.40;;
76848;SDS011;65814;51.134;16.980;2023-02-11T06:06:25;26.30;;;15.00;;
76848;SDS011;65814;51.134;16.980;2023-02-11T06:08:53;24.50;;;14.80;;
76848;SDS011;65814;51.134;16.980;2023-02-11T06:11:21;28.20;;;15.40;;
76848;SDS011;65814;51.134;16.980;2023-02-11T06:13:49;28.60;;;15.60;;
76848;SDS011;65814;51.134;16.980;2023-02-11T06:16:17;25.60;;;14.90;;
76848;SDS011;65814;51.134;16.980;2023-02-11T06:18:45;26.30;;;16.10;;
76848;SDS011;65814;51.134;16.980;2023-02-11T06:21:12;27.00;;;15.80;;
76848;SDS011;65814;51.134;16.980;2023-02-11T06:23:40;23.20;;;13.70;;
76848;SDS011;65814;51.134;16.980;2023-02-11T06:26:14;26.40;;;15.20;;
76848;SDS011;65814;51.134;16.980;2023-02-11T06:28:46;25.00;;;15.40;;
76848;SDS011;65814;51.134;16.980;2023-02-11T06:31:15;24.00;;;14.70;;
76848;SDS011;65814;51.134;16.980;2023-02-11T06:33:43;26.50;;;15.00;;
76848;SDS011;65814;51.134;16.980;2023-02-11T06:36:13;23.00;;;14.30;;
76848;SDS011;65814;51.134;16.980;2023-02-11T06:38:42;23.60;;;16.00;;
76848;SDS011;65814;51.134;16.980;2023-02-11T06:41:14;24.50;;;15.20;;
76848;SDS011;65814;51.134;16.980;2023-02-11T06:43:44;26.70;;;13.70;;
76848;SDS011;65814;51.134;16.980;2023-02-11T06:46:12;24.00;;;15.00;;
76848;SDS011;65814;51.134;16.980;2023-02-11T06:48:40;26.00;;;16.50;;
76848;SDS011;65814;51.134;16.980;2023-02-11T06:51:11;26.30;;;18.70;;
76848;SDS011;65814;51.134;16.980;2023-02-11T06:53:41;27.40;;;16.30;;
76848;SDS011;65814;51.134;16.980;2023-02-11T06:56:13;26.00;;;15.90;;
76848;SDS011;65814;51.134;16.980;2023-02-11T06:58:45;26.30;;;15.10;;
76848;SDS011;65814;51.134;16.980;2023-02-11T07:01:14;26.20;;;15.10;;
76848;SDS011;65814;51.134;16.980;2023-02-11T07:03:43;27.20;;;14.90;;
76848;SDS011;65814;51.134;16.980;2023-02-11T07:06:13;24.40;;;15.10;;
76848;SDS011;65814;51.134;16.980;2023-02-11T07:08:43;27.40;;;15.00;;
76848;SDS011;65814;51.134;16.980;2023-02-11T07:11:17;22.40;;;13.00;;
76848;SDS011;65814;51.134;16.980;2023-02-11T07:13:52;25.70;;;13.90;;
76848;SDS011;65814;51.134;16.980;2023-02-11T07:16:21;27.00;;;15.60;;
76848;SDS011;65814;51.134;16.980;2023-02-11T07:18:49;27.50;;;15.20;;
76848;SDS011;65814;51.134;16.980;2023-02-11T07:21:19;26.60;;;14.90;;
76848;SDS011;65814;51.134;16.980;2023-02-11T07:23:48;23.30;;;14.60;;
76848;SDS011;65814;51.134;16.980;2023-02-11T07:26:17;25.20;;;15.70;;
76848;SDS011;65814;51.134;16.980;2023-02-11T07:28:46;26.30;;;15.10;;
76848;SDS011;65814;51.134;16.980;2023-02-11T07:31:15;27.60;;;15.30;;
76848;SDS011;65814;51.134;16.980;2023-02-11T07:33:55;27.10;;;14.50;;
76848;SDS011;65814;51.134;16.980;2023-02-11T07:36:24;26.80;;;17.50;;
76848;SDS011;65814;51.134;16.980;2023-02-11T07:38:55;27.20;;;15.60;;
76848;SDS011;65814;51.134;16.980;2023-02-11T07:41:26;27.50;;;16.00;;
76848;SDS011;65814;51.134;16.980;2023-02-11T07:43:54;28.80;;;16.10;;
76848;SDS011;65814;51.134;16.980;2023-02-11T07:46:24;22.50;;;13.00;;
76848;SDS011;65814;51.134;16.980;2023-02-11T07:48:53;26.10;;;14.80;;
76848;SDS011;65814;51.134;16.980;2023-02-11T07:51:23;25.30;;;13.80;;
76848;SDS011;65814;51.134;16.980;2023-02-11T07:53:52;24.30;;;14.40;;
76848;SDS011;65814;51.134;16.980;2023-02-11T07:56:22;25.60;;;14.70;;
76848;SDS011;65814;51.134;16.980;2023-02-11T07:58:50;22.00;;;12.70;;
76848;SDS011;65814;51.134;16.980;2023-02-11T08:01:19;20.00;;;13.20;;
76848;SDS011;65814;51.134;16.980;2023-02-11T08:03:54;23.60;;;12.50;;
76848;SDS011;65814;51.134;16.980;2023-02-11T08:06:24;22.20;;;14.10;;
76848;SDS011;65814;51.134;16.980;2023-02-11T08:08:53;22.90;;;12.90;;
76848;SDS011;65814;51.134;16.980;2023-02-11T08:11:22;24.40;;;14.50;;
76848;SDS011;65814;51.134;16.980;2023-02-11T08:13:52;27.30;;;15.10;;
76848;SDS011;65814;51.134;16.980;2023-02-11T08:16:21;28.90;;;16.40;;
76848;SDS011;65814;51.134;16.980;2023-02-11T08:18:54;25.90;;;15.60;;
76848;SDS011;65814;51.134;16.980;2023-02-11T08:21:24;22.70;;;14.00;;
76848;SDS011;65814;51.134;16.980;2023-02-11T08:23:52;22.40;;;14.30;;
76848;SDS011;65814;51.134;16.980;2023-02-11T08:26:22;24.40;;;14.20;;
76848;SDS011;65814;51.134;16.980;2023-02-11T08:28:53;23.30;;;15.00;;
76848;SDS011;65814;51.134;16.980;2023-02-11T08:31:23;22.50;;;13.00;;
76848;SDS011;65814;51.134;16.980;2023-02-11T08:33:53;22.60;;;13.20;;
76848;SDS011;65814;51.134;16.980;2023-02-11T08:36:26;23.20;;;13.30;;
76848;SDS011;65814;51.134;16.980;2023-02-11T08:38:57;25.60;;;15.90;;
76848;SDS011;65814;51.134;16.980;2023-02-11T08:41:55;28.50;;;16.00;;
76848;SDS011;65814;51.134;16.980;2023-02-11T08:44:23;32.60;;;17.20;;
76848;SDS011;65814;51.134;16.980;2023-02-11T08:46:51;25.50;;;15.50;;
76848;SDS011;65814;51.134;16.980;2023-02-11T08:49:19;30.60;;;15.10;;
76848;SDS011;65814;51.134;16.980;2023-02-11T08:51:48;27.90;;;16.20;;
76848;SDS011;65814;51.134;16.980;2023-02-11T08:54:16;24.60;;;13.40;;
76848;SDS011;65814;51.134;16.980;2023-02-11T08:56:44;27.10;;;14.80;;
76848;SDS011;65814;51.134;16.980;2023-02-11T08:59:12;33.10;;;18.30;;
76848;SDS011;65814;51.134;16.980;2023-02-11T09:01:41;25.00;;;15.80;;
76848;SDS011;65814;51.134;16.980;2023-02-11T09:04:11;26.50;;;15.60;;
76848;SDS011;65814;51.134;16.980;2023-02-11T09:06:39;29.10;;;17.10;;
76848;SDS011;65814;51.134;16.980;2023-02-11T09:09:09;28.80;;;15.90;;
76848;SDS011;65814;51.134;16.980;2023-02-11T09:11:40;26.50;;;14.20;;
76848;SDS011;65814;51.134;16.980;2023-02-11T09:14:14;26.50;;;14.60;;
76848;SDS011;65814;51.134;16.980;2023-02-11T09:16:44;25.50;;;14.60;;
76848;SDS011;65814;51.134;16.980;2023-02-11T09:19:13;24.50;;;13.80;;
76848;SDS011;65814;51.134;16.980;2023-02-11T09:21:40;26.10;;;16.10;;
76848;SDS011;65814;51.134;16.980;2023-02-11T09:24:08;27.60;;;17.00;;
76848;SDS011;65814;51.134;16.980;2023-02-11T09:26:37;25.20;;;16.40;;
76848;SDS011;65814;51.134;16.980;2023-02-11T09:29:05;26.20;;;16.00;;
76848;SDS011;65814;51.134;16.980;2023-02-11T09:31:33;27.50;;;15.40;;
76848;SDS011;65814;51.134;16.980;2023-02-11T09:34:03;23.50;;;14.40;;
76848;SDS011;65814;51.134;16.980;2023-02-11T09:36:33;24.00;;;14.10;;
76848;SDS011;65814;51.134;16.980;2023-02-11T09:39:05;22.60;;;14.10;;
76848;SDS011;65814;51.134;16.980;2023-02-11T09:41:40;23.90;;;13.80;;
76848;SDS011;65814;51.134;16.980;2023-02-11T09:44:16;26.20;;;15.50;;
76848;SDS011;65814;51.134;16.980;2023-02-11T09:46:49;25.80;;;16.00;;
76848;SDS011;65814;51.134;16.980;2023-02-11T09:49:39;26.70;;;16.40;;
76848;SDS011;65814;51.134;16.980;2023-02-11T09:52:22;23.80;;;15.40;;
76848;SDS011;65814;51.134;16.980;2023-02-11T09:55:24;26.20;;;15.20;;
76848;SDS011;65814;51.134;16.980;2023-02-11T09:57:54;21.30;;;13.90;;
76848;SDS011;65814;51.134;16.980;2023-02-11T10:00:26;22.40;;;13.00;;
76848;SDS011;65814;51.134;16.980;2023-02-11T10:05:56;19.80;;;12.40;;
76848;SDS011;65814;51.134;16.980;2023-02-11T10:08:38;28.80;;;14.60;;
76848;SDS011;65814;51.134;16.980;2023-02-11T10:14:08;19.70;;;13.60;;
76848;SDS011;65814;51.134;16.980;2023-02-11T10:17:01;22.20;;;14.00;;
76848;SDS011;65814;51.134;16.980;2023-02-11T10:22:31;20.10;;;13.20;;
76848;SDS011;65814;51.134;16.980;2023-02-11T10:25:25;23.30;;;12.90;;
76848;SDS011;65814;51.134;16.980;2023-02-11T10:28:00;20.80;;;11.60;;
76848;SDS011;65814;51.134;16.980;2023-02-11T10:30:42;21.90;;;11.90;;
76848;SDS011;65814;51.134;16.980;2023-02-11T10:33:28;24.70;;;16.00;;
76848;SDS011;65814;51.134;16.980;2023-02-11T10:35:59;25.40;;;15.30;;
76848;SDS011;65814;51.134;16.980;2023-02-11T10:38:27;21.40;;;13.50;;
76848;SDS011;65814;51.134;16.980;2023-02-11T10:40:54;23.00;;;14.60;;
76848;SDS011;65814;51.134;16.980;2023-02-11T10:43:24;21.20;;;12.80;;
76848;SDS011;65814;51.134;16.980;2023-02-11T10:45:54;20.90;;;13.10;;
76848;SDS011;65814;51.134;16.980;2023-02-11T10:53:45;26.20;;;14.50;;
76848;SDS011;65814;51.134;16.980;2023-02-11T10:56:22;26.90;;;15.60;;
76848;SDS011;65814;51.134;16.980;2023-02-11T10:58:59;22.60;;;14.50;;
76848;SDS011;65814;51.134;16.980;2023-02-11T11:01:49;21.60;;;12.90;;
76848;SDS011;65814;51.134;16.980;2023-02-11T11:07:15;24.30;;;13.50;;
76848;SDS011;65814;51.134;16.980;2023-02-11T11:09:57;22.60;;;14.00;;
76848;SDS011;65814;51.134;16.980;2023-02-11T11:15:15;26.20;;;15.10;;
76848;SDS011;65814;51.134;16.980;2023-02-11T11:23:27;23.50;;;15.00;;
76848;SDS011;65814;51.134;16.980;2023-02-11T11:26:09;23.30;;;13.80;;
76848;SDS011;65814;51.134;16.980;2023-02-11T11:28:48;22.80;;;13.80;;
76848;SDS011;65814;51.134;16.980;2023-02-11T11:31:32;23.80;;;13.40;;
76848;SDS011;65814;51.134;16.980;2023-02-11T11:34:05;22.70;;;13.20;;
76848;SDS011;65814;51.134;16.980;2023-02-11T11:42:42;25.60;;;15.40;;
76848;SDS011;65814;51.134;16.980;2023-02-11T11:56:03;21.70;;;13.80;;
76848;SDS011;65814;51.134;16.980;2023-02-11T11:58:34;25.30;;;13.50;;
76848;SDS011;65814;51.134;16.980;2023-02-11T12:06:39;25.40;;;14.80;;
76848;SDS011;65814;51.134;16.980;2023-02-11T12:14:30;22.60;;;13.50;;
76848;SDS011;65814;51.134;16.980;2023-02-11T12:17:05;21.20;;;13.00;;
76848;SDS011;65814;51.134;16.980;2023-02-11T12:19:44;21.50;;;13.50;;
76848;SDS011;65814;51.134;16.980;2023-02-11T12:36:58;22.10;;;15.20;;
76848;SDS011;65814;51.134;16.980;2023-02-11T12:39:51;20.00;;;12.90;;
76848;SDS011;65814;51.134;16.980;2023-02-11T12:48:15;23.70;;;14.50;;
76848;SDS011;65814;51.134;16.980;2023-02-11T12:58:39;20.10;;;13.20;;
76848;SDS011;65814;51.134;16.980;2023-02-11T13:06:39;22.60;;;13.10;;
76848;SDS011;65814;51.134;16.980;2023-02-11T13:09:12;21.20;;;13.50;;
76848;SDS011;65814;51.134;16.980;2023-02-11T13:11:54;26.30;;;14.50;;
76848;SDS011;65814;51.134;16.980;2023-02-11T13:14:33;25.10;;;16.00;;
76848;SDS011;65814;51.134;16.980;2023-02-11T13:17:18;22.70;;;14.70;;
76848;SDS011;65814;51.134;16.980;2023-02-11T13:19:51;25.60;;;14.60;;
76848;SDS011;65814;51.134;16.980;2023-02-11T13:22:23;22.10;;;14.10;;
76848;SDS011;65814;51.134;16.980;2023-02-11T13:25:02;22.10;;;13.00;;
76848;SDS011;65814;51.134;16.980;2023-02-11T13:33:17;24.60;;;13.80;;
76848;SDS011;65814;51.134;16.980;2023-02-11T13:35:48;25.00;;;14.10;;
76848;SDS011;65814;51.134;16.980;2023-02-11T13:38:36;23.90;;;15.10;;
76848;SDS011;65814;51.134;16.980;2023-02-11T13:41:18;21.00;;;13.20;;
76848;SDS011;65814;51.134;16.980;2023-02-11T13:46:27;20.70;;;13.10;;
76848;SDS011;65814;51.134;16.980;2023-02-11T13:48:56;24.50;;;15.30;;
76848;SDS011;65814;51.134;16.980;2023-02-11T13:54:03;21.50;;;13.90;;
76848;SDS011;65814;51.134;16.980;2023-02-11T13:56:33;21.70;;;13.20;;
76848;SDS011;65814;51.134;16.980;2023-02-11T13:59:42;27.40;;;14.10;;
76848;SDS011;65814;51.134;16.980;2023-02-11T14:02:02;22.30;;;14.90;;
76848;SDS011;65814;51.134;16.980;2023-02-11T14:13:30;22.10;;;13.80;;
76848;SDS011;65814;51.134;16.980;2023-02-11T14:16:22;23.10;;;12.90;;
76848;SDS011;65814;51.134;16.980;2023-02-11T14:19:05;22.30;;;12.90;;
76848;SDS011;65814;51.134;16.980;2023-02-11T14:21:38;24.00;;;13.90;;
76848;SDS011;65814;51.134;16.980;2023-02-11T14:26:51;25.50;;;14.80;;
76848;SDS011;65814;51.134;16.980;2023-02-11T14:29:35;26.90;;;14.90;;
76848;SDS011;65814;51.134;16.980;2023-02-11T14:43:19;19.60;;;13.30;;
76848;SDS011;65814;51.134;16.980;2023-02-11T14:45:50;21.70;;;13.80;;
76848;SDS011;65814;51.134;16.980;2023-02-11T14:48:27;24.80;;;16.00;;
76848;SDS011;65814;51.134;16.980;2023-02-11T14:50:58;23.60;;;15.60;;
76848;SDS011;65814;51.134;16.980;2023-02-11T14:53:29;22.70;;;13.90;;
76848;SDS011;65814;51.134;16.980;2023-02-11T14:55:58;20.80;;;13.00;;
76848;SDS011;65814;51.134;16.980;2023-02-11T14:58:30;20.20;;;12.60;;
76848;SDS011;65814;51.134;16.980;2023-02-11T15:01:00;25.60;;;15.10;;
76848;SDS011;65814;51.134;16.980;2023-02-11T15:03:36;20.00;;;12.70;;
76848;SDS011;65814;51.134;16.980;2023-02-11T15:08:59;24.70;;;14.50;;
76848;SDS011;65814;51.134;16.980;2023-02-11T15:11:36;22.10;;;13.60;;
76848;SDS011;65814;51.134;16.980;2023-02-11T15:14:08;20.20;;;14.30;;
76848;SDS011;65814;51.134;16.980;2023-02-11T15:16:41;22.40;;;13.10;;
76848;SDS011;65814;51.134;16.980;2023-02-11T15:22:18;21.60;;;12.30;;
76848;SDS011;65814;51.134;16.980;2023-02-11T15:27:38;21.30;;;14.20;;
76848;SDS011;65814;51.134;16.980;2023-02-11T15:32:56;22.60;;;14.00;;
76848;SDS011;65814;51.134;16.980;2023-02-11T15:35:28;21.30;;;12.30;;
76848;SDS011;65814;51.134;16.980;2023-02-11T15:38:01;21.80;;;13.30;;
76848;SDS011;65814;51.134;16.980;2023-02-11T15:40:32;22.00;;;13.10;;
76848;SDS011;65814;51.134;16.980;2023-02-11T15:45:41;21.70;;;15.30;;
76848;SDS011;65814;51.134;16.980;2023-02-11T15:48:12;20.60;;;14.00;;
76848;SDS011;65814;51.134;16.980;2023-02-11T15:50:49;22.50;;;14.30;;
76848;SDS011;65814;51.134;16.980;2023-02-11T15:53:30;22.00;;;12.10;;
76848;SDS011;65814;51.134;16.980;2023-02-11T15:58:39;20.70;;;12.10;;
76848;SDS011;65814;51.134;16.980;2023-02-11T16:01:08;24.50;;;14.80;;
76848;SDS011;65814;51.134;16.980;2023-02-11T16:03:37;21.00;;;14.50;;
76848;SDS011;65814;51.134;16.980;2023-02-11T16:06:15;20.20;;;14.10;;
76848;SDS011;65814;51.134;16.980;2023-02-11T16:08:55;17.80;;;12.70;;
76848;SDS011;65814;51.134;16.980;2023-02-11T16:11:34;19.10;;;11.80;;
76848;SDS011;65814;51.134;16.980;2023-02-11T16:17:12;18.60;;;11.40;;
76848;SDS011;65814;51.134;16.980;2023-02-11T16:19:50;19.60;;;13.80;;
76848;SDS011;65814;51.134;16.980;2023-02-11T16:22:26;19.30;;;14.50;;
76848;SDS011;65814;51.134;16.980;2023-02-11T16:24:57;17.60;;;12.00;;
76848;SDS011;65814;51.134;16.980;2023-02-11T16:27:26;16.90;;;11.50;;
76848;SDS011;65814;51.134;16.980;2023-02-11T16:30:05;18.80;;;11.60;;
76848;SDS011;65814;51.134;16.980;2023-02-11T16:32:34;19.90;;;12.80;;
76848;SDS011;65814;51.134;16.980;2023-02-11T16:35:03;15.80;;;11.30;;
76848;SDS011;65814;51.134;16.980;2023-02-11T16:37:36;20.60;;;12.90;;
76848;SDS011;65814;51.134;16.980;2023-02-11T16:40:04;19.50;;;13.00;;
76848;SDS011;65814;51.134;16.980;2023-02-11T16:42:32;18.70;;;11.70;;
76848;SDS011;65814;51.134;16.980;2023-02-11T16:45:00;19.20;;;12.30;;
76848;SDS011;65814;51.134;16.980;2023-02-11T16:47:28;17.20;;;10.60;;
76848;SDS011;65814;51.134;16.980;2023-02-11T16:49:57;17.40;;;10.30;;
76848;SDS011;65814;51.134;16.980;2023-02-11T16:52:26;17.70;;;12.30;;
76848;SDS011;65814;51.134;16.980;2023-02-11T16:54:57;17.60;;;13.90;;
76848;SDS011;65814;51.134;16.980;2023-02-11T16:57:26;19.50;;;13.40;;
76848;SDS011;65814;51.134;16.980;2023-02-11T16:59:57;17.00;;;12.10;;
76848;SDS011;65814;51.134;16.980;2023-02-11T17:02:27;16.00;;;11.90;;
76848;SDS011;65814;51.134;16.980;2023-02-11T17:04:58;15.60;;;10.30;;
76848;SDS011;65814;51.134;16.980;2023-02-11T17:07:28;15.20;;;10.50;;
76848;SDS011;65814;51.134;16.980;2023-02-11T17:09:55;17.90;;;11.80;;
76848;SDS011;65814;51.134;16.980;2023-02-11T17:12:24;15.70;;;10.30;;
76848;SDS011;65814;51.134;16.980;2023-02-11T17:14:52;18.50;;;12.20;;
76848;SDS011;65814;51.134;16.980;2023-02-11T17:17:20;19.80;;;12.50;;
76848;SDS011;65814;51.134;16.980;2023-02-11T17:19:50;19.70;;;11.80;;
76848;SDS011;65814;51.134;16.980;2023-02-11T17:22:19;17.70;;;12.10;;
76848;SDS011;65814;51.134;16.980;2023-02-11T17:24:46;16.70;;;11.20;;
76848;SDS011;65814;51.134;16.980;2023-02-11T17:27:15;15.80;;;10.50;;
76848;SDS011;65814;51.134;16.980;2023-02-11T17:29:43;15.90;;;10.80;;
76848;SDS011;65814;51.134;16.980;2023-02-11T17:32:12;18.10;;;12.60;;
76848;SDS011;65814;51.134;16.980;2023-02-11T17:34:40;18.10;;;12.80;;
76848;SDS011;65814;51.134;16.980;2023-02-11T17:37:08;20.30;;;12.00;;
76848;SDS011;65814;51.134;16.980;2023-02-11T17:39:37;15.20;;;11.40;;